createdAt,value
2016-07-23T00:00:02.704Z,0
2016-07-23T00:01:04.130Z,0
2016-07-23T00:02:03.505Z,0
2016-07-23T00:03:03.446Z,0
2016-07-23T00:04:02.705Z,0
2016-07-23T00:05:02.782Z,0
2016-07-23T00:06:02.726Z,0
2016-07-23T00:07:01.930Z,0
2016-07-23T00:08:02.019Z,0
2016-07-23T00:09:02.641Z,0
2016-07-23T00:10:02.772Z,0
2016-07-23T00:11:03.415Z,0
2016-07-23T00:12:02.731Z,0
2016-07-23T00:13:04.186Z,0
2016-07-23T00:14:04.215Z,0
2016-07-23T00:15:03.517Z,0
2016-07-23T00:16:02.674Z,0
2016-07-23T00:17:03.581Z,0
2016-07-23T00:18:01.994Z,0
2016-07-23T00:19:03.426Z,0
2016-07-23T00:20:03.573Z,0
2016-07-23T00:21:02.822Z,0
2016-07-23T00:22:02.927Z,0
2016-07-23T00:23:03.485Z,0
2016-07-23T00:24:03.518Z,0
2016-07-23T00:25:03.404Z,0
2016-07-23T00:26:03.546Z,0
2016-07-23T00:27:03.423Z,0
2016-07-23T00:28:04.314Z,0
2016-07-23T00:29:03.524Z,0
2016-07-23T00:30:02.711Z,0
2016-07-23T00:31:03.599Z,0
2016-07-23T00:32:02.749Z,0
2016-07-23T00:33:02.733Z,0
2016-07-23T00:34:02.183Z,0
2016-07-23T00:35:02.860Z,0
2016-07-23T00:36:04.186Z,0
2016-07-23T00:37:03.786Z,0
2016-07-23T00:38:02.734Z,0
2016-07-23T00:39:02.785Z,0
2016-07-23T00:40:03.457Z,0
2016-07-23T00:41:04.316Z,0
2016-07-23T00:42:04.225Z,0
2016-07-23T00:43:04.246Z,0
2016-07-23T00:44:02.815Z,0
2016-07-23T00:45:02.961Z,0
2016-07-23T00:46:03.670Z,0
2016-07-23T00:47:04.366Z,0
2016-07-23T00:48:03.684Z,0
2016-07-23T00:49:01.419Z,0
2016-07-23T00:50:03.573Z,0
2016-07-23T00:51:02.083Z,0
2016-07-23T00:52:04.362Z,0
2016-07-23T00:53:03.657Z,0
2016-07-23T00:54:03.671Z,0
2016-07-23T00:55:02.957Z,0
2016-07-23T00:56:03.651Z,0
2016-07-23T00:57:02.226Z,0
2016-07-23T00:58:03.636Z,0
2016-07-23T00:59:02.123Z,0
2016-07-23T01:00:03.141Z,0
2016-07-23T01:01:04.255Z,0
2016-07-23T01:02:02.989Z,0
2016-07-23T01:03:03.589Z,0
2016-07-23T01:04:02.864Z,0
2016-07-23T01:05:03.579Z,0
2016-07-23T01:06:02.169Z,0
2016-07-23T01:07:02.886Z,0
2016-07-23T01:08:03.597Z,0
2016-07-23T01:09:02.198Z,0
2016-07-23T01:10:03.617Z,0
2016-07-23T01:11:03.621Z,0
2016-07-23T01:12:02.924Z,0
2016-07-23T01:13:03.640Z,0
2016-07-23T01:14:02.238Z,0
2016-07-23T01:15:01.533Z,0
2016-07-23T01:16:02.952Z,0
2016-07-23T01:17:02.267Z,0
2016-07-23T01:18:04.382Z,0
2016-07-23T01:19:03.686Z,0
2016-07-23T01:20:02.995Z,0
2016-07-23T01:21:02.288Z,0
2016-07-23T01:22:03.005Z,0
2016-07-23T01:23:03.008Z,0
2016-07-23T01:24:03.749Z,0
2016-07-23T01:25:02.318Z,0
2016-07-23T01:26:03.741Z,0
2016-07-23T01:27:02.335Z,0
2016-07-23T01:28:01.635Z,0
2016-07-23T01:29:03.062Z,0
2016-07-23T01:30:03.770Z,0
2016-07-23T01:31:03.787Z,0
2016-07-23T01:32:03.080Z,0
2016-07-23T01:33:04.515Z,0
2016-07-23T01:34:03.098Z,0
2016-07-23T01:35:03.158Z,0
2016-07-23T01:36:04.525Z,0
2016-07-23T01:37:03.879Z,0
2016-07-23T01:38:03.132Z,0
2016-07-23T01:39:03.140Z,0
2016-07-23T01:40:03.852Z,0
2016-07-23T01:41:03.150Z,0
2016-07-23T01:42:02.463Z,0
2016-07-23T01:43:03.169Z,0
2016-07-23T01:44:03.894Z,0
2016-07-23T01:45:04.600Z,0
2016-07-23T01:46:03.277Z,0
2016-07-23T01:47:03.918Z,0
2016-07-23T01:48:02.600Z,0
2016-07-23T01:49:04.035Z,0
2016-07-23T01:50:04.788Z,0
2016-07-23T01:51:03.285Z,0
2016-07-23T01:52:01.975Z,0
2016-07-23T01:53:04.110Z,0
2016-07-23T01:54:03.276Z,0
2016-07-23T01:55:02.584Z,0
2016-07-23T01:56:03.297Z,0
2016-07-23T01:57:03.283Z,0
2016-07-23T01:58:04.779Z,0
2016-07-23T01:59:03.425Z,0
2016-07-23T02:00:04.008Z,0
2016-07-23T02:01:02.610Z,0
2016-07-23T02:02:04.041Z,0
2016-07-23T02:03:04.033Z,0
2016-07-23T02:04:04.046Z,0
2016-07-23T02:05:04.054Z,0
2016-07-23T02:06:03.365Z,0
2016-07-23T02:07:02.653Z,0
2016-07-23T02:08:04.794Z,0
2016-07-23T02:09:02.674Z,0
2016-07-23T02:10:03.386Z,0
2016-07-23T02:11:04.101Z,0
2016-07-23T02:12:03.405Z,0
2016-07-23T02:13:04.114Z,0
2016-07-23T02:14:03.421Z,0
2016-07-23T02:15:02.723Z,0
2016-07-23T02:16:04.140Z,0
2016-07-23T02:17:04.150Z,0
2016-07-23T02:18:04.156Z,0
2016-07-23T02:19:03.475Z,0
2016-07-23T02:20:02.756Z,0
2016-07-23T02:21:03.482Z,0
2016-07-23T02:22:04.193Z,0
2016-07-23T02:23:02.794Z,0
2016-07-23T02:24:02.091Z,0
2016-07-23T02:25:02.800Z,0
2016-07-23T02:26:03.514Z,0
2016-07-23T02:27:04.240Z,0
2016-07-23T02:28:04.236Z,0
2016-07-23T02:29:04.247Z,0
2016-07-23T02:30:02.131Z,0
2016-07-23T02:31:02.143Z,0
2016-07-23T02:32:04.269Z,0
2016-07-23T02:33:04.987Z,0
2016-07-23T02:34:04.286Z,0
2016-07-23T02:35:02.880Z,0
2016-07-23T02:36:04.303Z,0
2016-07-23T02:37:03.794Z,0
2016-07-23T02:38:18.537Z,0
2016-07-23T02:39:02.909Z,0
2016-07-23T02:40:04.334Z,0
2016-07-23T02:41:03.642Z,0
2016-07-23T02:42:03.652Z,0
2016-07-23T02:43:04.355Z,0
2016-07-23T02:44:04.366Z,0
2016-07-23T02:45:04.373Z,0
2016-07-23T02:46:04.383Z,0
2016-07-23T02:47:05.753Z,0
2016-07-23T02:48:03.686Z,0
2016-07-23T02:49:04.598Z,0
2016-07-23T02:50:03.708Z,0
2016-07-23T02:51:03.004Z,0
2016-07-23T02:52:04.435Z,0
2016-07-23T02:53:03.023Z,0
2016-07-23T02:54:05.148Z,0
2016-07-23T02:55:03.741Z,0
2016-07-23T02:56:04.509Z,0
2016-07-23T02:57:03.758Z,0
2016-07-23T02:58:06.280Z,0
2016-07-23T02:59:03.776Z,0
2016-07-23T03:00:05.198Z,0
2016-07-23T03:01:03.793Z,0
2016-07-23T03:02:03.092Z,0
2016-07-23T03:03:05.215Z,0
2016-07-23T03:04:03.115Z,0
2016-07-23T03:05:03.115Z,0
2016-07-23T03:06:03.832Z,0
2016-07-23T03:07:03.131Z,0
2016-07-23T03:08:03.847Z,0
2016-07-23T03:09:04.482Z,0
2016-07-23T03:10:04.569Z,0
2016-07-23T03:11:02.459Z,0
2016-07-23T03:12:03.880Z,0
2016-07-23T03:13:04.591Z,0
2016-07-23T03:14:04.603Z,0
2016-07-23T03:15:04.610Z,0
2016-07-23T03:16:03.207Z,0
2016-07-23T03:17:03.922Z,0
2016-07-23T03:18:05.686Z,0
2016-07-23T03:19:03.227Z,0
2016-07-23T03:20:03.942Z,0
2016-07-23T03:21:03.951Z,0
2016-07-23T03:22:03.959Z,0
2016-07-23T03:23:03.971Z,0
2016-07-23T03:24:05.391Z,0
2016-07-23T03:25:03.278Z,0
2016-07-23T03:26:03.286Z,0
2016-07-23T03:27:04.003Z,0
2016-07-23T03:28:03.299Z,0
2016-07-23T03:29:04.622Z,0
2016-07-23T03:30:04.729Z,0
2016-07-23T03:31:04.179Z,0
2016-07-23T03:32:05.451Z,0
2016-07-23T03:33:05.858Z,0
2016-07-23T03:34:04.067Z,0
2016-07-23T03:35:04.062Z,0
2016-07-23T03:36:04.834Z,0
2016-07-23T03:37:03.380Z,0
2016-07-23T03:38:05.499Z,0
2016-07-23T03:39:05.505Z,0
2016-07-23T03:40:06.221Z,0
2016-07-23T03:41:04.818Z,0
2016-07-23T03:42:04.876Z,0
2016-07-23T03:43:04.126Z,0
2016-07-23T03:44:06.206Z,0
2016-07-23T03:45:03.435Z,0
2016-07-23T03:46:05.564Z,0
2016-07-23T03:47:03.451Z,0
2016-07-23T03:48:04.169Z,0
2016-07-23T03:49:05.589Z,0
2016-07-23T03:50:04.180Z,0
2016-07-23T03:51:05.258Z,0
2016-07-23T03:52:04.199Z,0
2016-07-23T03:53:03.500Z,0
2016-07-23T03:54:04.213Z,0
2016-07-23T03:55:05.129Z,0
2016-07-23T03:56:04.231Z,0
2016-07-23T03:57:05.655Z,0
2016-07-23T03:58:04.253Z,0
2016-07-23T03:59:04.251Z,0
2016-07-23T04:00:03.554Z,0
2016-07-23T04:01:04.982Z,0
2016-07-23T04:02:04.989Z,0
2016-07-23T04:03:04.294Z,0
2016-07-23T04:04:05.773Z,0
2016-07-23T04:05:03.593Z,0
2016-07-23T04:06:04.503Z,0
2016-07-23T04:07:05.731Z,0
2016-07-23T04:08:02.915Z,0
2016-07-23T04:09:04.336Z,0
2016-07-23T04:10:05.046Z,0
2016-07-23T04:11:05.062Z,0
2016-07-23T04:12:04.363Z,0
2016-07-23T04:13:04.366Z,0
2016-07-23T04:14:05.092Z,0
2016-07-23T04:15:05.533Z,0
2016-07-23T04:16:03.687Z,5
2016-07-23T04:17:05.050Z,5
2016-07-23T04:18:05.116Z,5
2016-07-23T04:19:04.422Z,5
2016-07-23T04:20:04.425Z,5
2016-07-23T04:21:03.730Z,5
2016-07-23T04:22:04.441Z,5
2016-07-23T04:23:03.741Z,5
2016-07-23T04:24:03.753Z,5
2016-07-23T04:25:03.759Z,5
2016-07-23T04:26:04.968Z,5
2016-07-23T04:27:03.780Z,5
2016-07-23T04:28:03.781Z,5
2016-07-23T04:29:04.499Z,5
2016-07-23T04:30:03.791Z,5
2016-07-23T04:31:04.512Z,5
2016-07-23T04:32:04.518Z,5
2016-07-23T04:33:04.526Z,5
2016-07-23T04:34:03.832Z,5
2016-07-23T04:35:05.091Z,5
2016-07-23T04:36:05.962Z,5
2016-07-23T04:37:04.713Z,5
2016-07-23T04:38:04.563Z,5
2016-07-23T04:39:04.576Z,5
2016-07-23T04:40:05.338Z,5
2016-07-23T04:41:04.587Z,5
2016-07-23T04:42:05.456Z,5
2016-07-23T04:43:03.948Z,5
2016-07-23T04:44:04.623Z,5
2016-07-23T04:45:05.329Z,5
2016-07-23T04:46:05.395Z,5
2016-07-23T04:47:03.932Z,5
2016-07-23T04:48:06.497Z,5
2016-07-23T04:49:04.651Z,10
2016-07-23T04:50:06.071Z,10
2016-07-23T04:51:04.673Z,10
2016-07-23T04:52:05.381Z,10
2016-07-23T04:53:05.393Z,10
2016-07-23T04:54:04.695Z,10
2016-07-23T04:55:05.409Z,10
2016-07-23T04:56:04.705Z,10
2016-07-23T04:57:05.423Z,10
2016-07-23T04:58:06.144Z,10
2016-07-23T04:59:06.069Z,10
2016-07-23T05:00:04.742Z,10
2016-07-23T05:01:05.757Z,10
2016-07-23T05:02:04.758Z,10
2016-07-23T05:03:05.474Z,10
2016-07-23T05:04:04.065Z,10
2016-07-23T05:05:05.494Z,10
2016-07-23T05:06:05.502Z,10
2016-07-23T05:07:05.497Z,10
2016-07-23T05:08:04.798Z,10
2016-07-23T05:09:03.391Z,10
2016-07-23T05:10:06.725Z,10
2016-07-23T05:11:04.123Z,10
2016-07-23T05:12:05.521Z,10
2016-07-23T05:13:03.430Z,10
2016-07-23T05:14:04.850Z,10
2016-07-23T05:15:04.870Z,10
2016-07-23T05:16:04.158Z,15
2016-07-23T05:17:05.584Z,15
2016-07-23T05:18:04.881Z,15
2016-07-23T05:19:04.299Z,15
2016-07-23T05:20:04.895Z,15
2016-07-23T05:21:06.178Z,15
2016-07-23T05:22:06.328Z,15
2016-07-23T05:23:05.771Z,15
2016-07-23T05:24:04.930Z,15
2016-07-23T05:25:06.351Z,15
2016-07-23T05:26:03.530Z,15
2016-07-23T05:27:04.247Z,15
2016-07-23T05:28:05.683Z,15
2016-07-23T05:29:04.271Z,15
2016-07-23T05:30:04.979Z,20
2016-07-23T05:31:05.698Z,20
2016-07-23T05:32:06.050Z,20
2016-07-23T05:33:04.997Z,20
2016-07-23T05:34:05.018Z,20
2016-07-23T05:35:05.025Z,20
2016-07-23T05:36:05.729Z,20
2016-07-23T05:37:05.739Z,20
2016-07-23T05:38:05.040Z,20
2016-07-23T05:39:04.341Z,20
2016-07-23T05:40:05.066Z,20
2016-07-23T05:41:06.118Z,20
2016-07-23T05:42:06.488Z,20
2016-07-23T05:43:06.497Z,20
2016-07-23T05:44:05.090Z,20
2016-07-23T05:45:05.302Z,20
2016-07-23T05:46:05.160Z,25
2016-07-23T05:47:05.821Z,25
2016-07-23T05:48:05.830Z,25
2016-07-23T05:49:05.850Z,25
2016-07-23T05:50:04.430Z,25
2016-07-23T05:51:05.856Z,25
2016-07-23T05:52:05.951Z,25
2016-07-23T05:53:05.867Z,25
2016-07-23T05:54:05.185Z,30
2016-07-23T05:55:05.884Z,30
2016-07-23T05:56:05.186Z,30
2016-07-23T05:57:05.192Z,30
2016-07-23T05:58:05.200Z,35
2016-07-23T05:59:05.930Z,35
2016-07-23T06:00:05.215Z,35
2016-07-23T06:01:04.522Z,40
2016-07-23T06:02:04.523Z,40
2016-07-23T06:03:05.229Z,40
2016-07-23T06:04:05.243Z,45
2016-07-23T06:05:05.559Z,50
2016-07-23T06:06:05.967Z,60
2016-07-23T06:07:05.282Z,60
2016-07-23T06:08:06.692Z,70
2016-07-23T06:09:06.695Z,75
2016-07-23T06:10:05.296Z,75
2016-07-23T06:11:05.306Z,80
2016-07-23T06:12:04.600Z,80
2016-07-23T06:13:04.611Z,75
2016-07-23T06:14:04.315Z,65
2016-07-23T06:15:06.048Z,60
2016-07-23T06:16:05.349Z,65
2016-07-23T06:17:04.643Z,70
2016-07-23T06:18:07.875Z,70
2016-07-23T06:19:06.780Z,65
2016-07-23T06:20:06.082Z,75
2016-07-23T06:21:05.377Z,105
2016-07-23T06:22:05.391Z,120
2016-07-23T06:23:06.104Z,125
2016-07-23T06:24:05.410Z,125
2016-07-23T06:25:04.709Z,125
2016-07-23T06:26:05.425Z,130
2016-07-23T06:27:07.867Z,130
2016-07-23T06:28:06.154Z,110
2016-07-23T06:29:06.569Z,85
2016-07-23T06:30:05.457Z,95
2016-07-23T06:31:05.465Z,95
2016-07-23T06:32:05.478Z,80
2016-07-23T06:33:06.191Z,75
2016-07-23T06:34:06.199Z,75
2016-07-23T06:35:06.208Z,75
2016-07-23T06:36:06.924Z,85
2016-07-23T06:37:04.803Z,115
2016-07-23T06:38:07.201Z,125
2016-07-23T06:39:06.242Z,130
2016-07-23T06:40:06.074Z,150
2016-07-23T06:41:05.549Z,180
2016-07-23T06:42:04.847Z,200
2016-07-23T06:43:04.150Z,175
2016-07-23T06:44:05.565Z,205
2016-07-23T06:45:05.583Z,185
2016-07-23T06:46:06.999Z,200
2016-07-23T06:47:06.352Z,145
2016-07-23T06:48:06.308Z,160
2016-07-23T06:49:07.202Z,180
2016-07-23T06:50:04.908Z,180
2016-07-23T06:51:06.686Z,160
2016-07-23T06:52:05.636Z,125
2016-07-23T06:53:06.362Z,185
2016-07-23T06:54:06.368Z,180
2016-07-23T06:55:06.369Z,155
2016-07-23T06:56:04.965Z,130
2016-07-23T06:57:06.381Z,135
2016-07-23T06:58:05.079Z,205
2016-07-23T06:59:07.106Z,155
2016-07-23T07:00:06.907Z,165
2016-07-23T07:01:06.423Z,155
2016-07-23T07:02:07.079Z,150
2016-07-23T07:03:05.723Z,180
2016-07-23T07:04:06.446Z,225
2016-07-23T07:05:07.166Z,190
2016-07-23T07:06:05.047Z,215
2016-07-23T07:07:05.762Z,165
2016-07-23T07:08:06.476Z,135
2016-07-23T07:09:05.076Z,125
2016-07-23T07:10:06.492Z,115
2016-07-23T07:11:06.645Z,150
2016-07-23T07:12:05.802Z,145
2016-07-23T07:13:06.519Z,150
2016-07-23T07:14:05.821Z,165
2016-07-23T07:15:05.848Z,130
2016-07-23T07:16:05.836Z,130
2016-07-23T07:17:06.554Z,145
2016-07-23T07:18:06.560Z,115
2016-07-23T07:19:07.280Z,95
2016-07-23T07:20:06.574Z,105
2016-07-23T07:21:07.297Z,90
2016-07-23T07:22:06.540Z,75
2016-07-23T07:23:05.897Z,70
2016-07-23T07:24:08.209Z,65
2016-07-23T07:25:05.911Z,60
2016-07-23T07:26:05.923Z,55
2016-07-23T07:27:05.926Z,50
2016-07-23T07:28:05.235Z,55
2016-07-23T07:29:05.236Z,55
2016-07-23T07:30:05.959Z,50
2016-07-23T07:31:05.963Z,50
2016-07-23T07:32:04.561Z,50
2016-07-23T07:33:07.087Z,50
2016-07-23T07:34:07.424Z,50
2016-07-23T07:35:05.995Z,50
2016-07-23T07:36:06.007Z,50
2016-07-23T07:37:05.304Z,45
2016-07-23T07:38:06.020Z,45
2016-07-23T07:39:05.322Z,50
2016-07-23T07:40:06.742Z,50
2016-07-23T07:41:06.750Z,50
2016-07-23T07:42:06.054Z,50
2016-07-23T07:43:07.468Z,50
2016-07-23T07:44:06.212Z,50
2016-07-23T07:45:06.126Z,50
2016-07-23T07:46:08.088Z,50
2016-07-23T07:47:05.443Z,50
2016-07-23T07:48:05.393Z,50
2016-07-23T07:49:06.100Z,50
2016-07-23T07:50:04.702Z,50
2016-07-23T07:51:07.593Z,50
2016-07-23T07:52:06.128Z,55
2016-07-23T07:53:06.140Z,55
2016-07-23T07:54:06.145Z,55
2016-07-23T07:55:06.872Z,55
2016-07-23T07:56:06.865Z,55
2016-07-23T07:57:06.174Z,55
2016-07-23T07:58:06.183Z,55
2016-07-23T07:59:05.624Z,55
2016-07-23T08:00:06.189Z,55
2016-07-23T08:01:06.216Z,55
2016-07-23T08:02:05.502Z,60
2016-07-23T08:03:06.225Z,60
2016-07-23T08:04:06.925Z,60
2016-07-23T08:05:06.234Z,60
2016-07-23T08:06:06.287Z,60
2016-07-23T08:07:05.543Z,60
2016-07-23T08:08:06.251Z,60
2016-07-23T08:09:06.970Z,65
2016-07-23T08:10:06.972Z,65
2016-07-23T08:11:06.979Z,70
2016-07-23T08:12:07.697Z,70
2016-07-23T08:13:04.880Z,75
2016-07-23T08:14:07.009Z,75
2016-07-23T08:15:07.019Z,80
2016-07-23T08:16:07.021Z,85
2016-07-23T08:17:08.280Z,85
2016-07-23T08:18:06.341Z,85
2016-07-23T08:19:08.647Z,85
2016-07-23T08:20:07.052Z,85
2016-07-23T08:21:06.353Z,85
2016-07-23T08:22:05.653Z,90
2016-07-23T08:23:06.394Z,90
2016-07-23T08:24:06.382Z,90
2016-07-23T08:25:06.389Z,90
2016-07-23T08:26:07.105Z,85
2016-07-23T08:27:06.398Z,90
2016-07-23T08:28:07.180Z,90
2016-07-23T08:29:06.420Z,90
2016-07-23T08:30:08.288Z,90
2016-07-23T08:31:07.147Z,85
2016-07-23T08:32:06.452Z,80
2016-07-23T08:33:06.453Z,75
2016-07-23T08:34:07.168Z,75
2016-07-23T08:35:07.204Z,75
2016-07-23T08:36:07.187Z,80
2016-07-23T08:37:07.898Z,80
2016-07-23T08:38:06.499Z,85
2016-07-23T08:39:06.300Z,80
2016-07-23T08:40:06.507Z,80
2016-07-23T08:41:08.066Z,80
2016-07-23T08:42:06.522Z,80
2016-07-23T08:43:06.532Z,85
2016-07-23T08:44:06.542Z,90
2016-07-23T08:45:06.547Z,85
2016-07-23T08:46:05.850Z,80
2016-07-23T08:47:05.866Z,80
2016-07-23T08:48:06.574Z,75
2016-07-23T08:49:07.284Z,75
2016-07-23T08:50:09.326Z,75
2016-07-23T08:51:05.885Z,75
2016-07-23T08:52:08.975Z,80
2016-07-23T08:53:07.324Z,85
2016-07-23T08:54:07.323Z,85
2016-07-23T08:55:06.629Z,90
2016-07-23T08:56:07.341Z,85
2016-07-23T08:57:06.642Z,85
2016-07-23T08:58:06.648Z,80
2016-07-23T08:59:08.068Z,75
2016-07-23T09:00:06.665Z,80
2016-07-23T09:01:07.221Z,85
2016-07-23T09:02:07.394Z,90
2016-07-23T09:03:08.981Z,95
2016-07-23T09:04:07.399Z,105
2016-07-23T09:05:06.701Z,110
2016-07-23T09:06:07.412Z,115
2016-07-23T09:07:06.015Z,115
2016-07-23T09:08:06.724Z,115
2016-07-23T09:09:06.043Z,120
2016-07-23T09:10:06.739Z,120
2016-07-23T09:11:07.457Z,120
2016-07-23T09:12:07.463Z,115
2016-07-23T09:13:06.766Z,145
2016-07-23T09:14:09.207Z,140
2016-07-23T09:15:06.887Z,140
2016-07-23T09:16:06.792Z,140
2016-07-23T09:17:06.798Z,140
2016-07-23T09:18:08.232Z,135
2016-07-23T09:19:06.804Z,135
2016-07-23T09:20:06.815Z,130
2016-07-23T09:21:06.109Z,125
2016-07-23T09:22:06.121Z,120
2016-07-23T09:23:08.927Z,120
2016-07-23T09:24:06.833Z,120
2016-07-23T09:25:08.703Z,120
2016-07-23T09:26:07.551Z,120
2016-07-23T09:27:06.849Z,120
2016-07-23T09:28:06.852Z,120
2016-07-23T09:29:08.274Z,120
2016-07-23T09:30:06.855Z,120
2016-07-23T09:31:06.166Z,120
2016-07-23T09:32:08.279Z,120
2016-07-23T09:33:06.868Z,115
2016-07-23T09:34:06.875Z,115
2016-07-23T09:35:07.587Z,115
2016-07-23T09:36:06.169Z,110
2016-07-23T09:37:07.591Z,110
2016-07-23T09:38:07.590Z,110
2016-07-23T09:39:06.888Z,105
2016-07-23T09:40:06.888Z,100
2016-07-23T09:41:06.219Z,100
2016-07-23T09:42:06.898Z,110
2016-07-23T09:43:06.204Z,115
2016-07-23T09:44:08.318Z,120
2016-07-23T09:45:07.105Z,120
2016-07-23T09:46:07.623Z,125
2016-07-23T09:47:08.855Z,130
2016-07-23T09:48:05.505Z,130
2016-07-23T09:49:06.936Z,130
2016-07-23T09:50:06.223Z,125
2016-07-23T09:51:06.231Z,125
2016-07-23T09:52:05.528Z,125
2016-07-23T09:53:08.368Z,125
2016-07-23T09:54:05.539Z,125
2016-07-23T09:55:07.720Z,125
2016-07-23T09:56:07.069Z,130
2016-07-23T09:57:07.673Z,130
2016-07-23T09:58:08.783Z,130
2016-07-23T09:59:06.975Z,135
2016-07-23T10:00:06.984Z,135
2016-07-23T10:01:07.748Z,135
2016-07-23T10:02:07.709Z,140
2016-07-23T10:03:07.703Z,140
2016-07-23T10:04:08.419Z,140
2016-07-23T10:05:08.418Z,140
2016-07-23T10:06:07.014Z,140
2016-07-23T10:07:07.788Z,140
2016-07-23T10:08:07.522Z,140
2016-07-23T10:09:09.316Z,145
2016-07-23T10:10:08.445Z,145
2016-07-23T10:11:07.740Z,145
2016-07-23T10:12:07.746Z,145
2016-07-23T10:13:07.750Z,145
2016-07-23T10:14:07.756Z,145
2016-07-23T10:15:07.758Z,145
2016-07-23T10:16:07.054Z,145
2016-07-23T10:17:07.767Z,145
2016-07-23T10:18:09.087Z,140
2016-07-23T10:19:06.362Z,140
2016-07-23T10:20:08.842Z,135
2016-07-23T10:21:07.084Z,135
2016-07-23T10:22:07.083Z,140
2016-07-23T10:23:07.027Z,135
2016-07-23T10:24:07.100Z,135
2016-07-23T10:25:06.398Z,140
2016-07-23T10:26:07.111Z,140
2016-07-23T10:27:07.110Z,140
2016-07-23T10:28:07.879Z,140
2016-07-23T10:29:08.802Z,140
2016-07-23T10:30:07.835Z,140
2016-07-23T10:31:07.136Z,145
2016-07-23T10:32:08.551Z,150
2016-07-23T10:33:07.148Z,150
2016-07-23T10:34:06.445Z,155
2016-07-23T10:35:07.158Z,155
2016-07-23T10:36:06.450Z,155
2016-07-23T10:37:06.460Z,155
2016-07-23T10:38:07.169Z,155
2016-07-23T10:39:07.901Z,155
2016-07-23T10:40:07.073Z,155
2016-07-23T10:41:07.896Z,150
2016-07-23T10:42:08.872Z,150
2016-07-23T10:43:08.622Z,155
2016-07-23T10:44:08.620Z,145
2016-07-23T10:45:07.217Z,150
2016-07-23T10:46:07.265Z,150
2016-07-23T10:47:07.935Z,150
2016-07-23T10:48:08.640Z,150
2016-07-23T10:49:06.520Z,150
2016-07-23T10:50:06.528Z,150
2016-07-23T10:51:07.181Z,145
2016-07-23T10:52:07.290Z,140
2016-07-23T10:53:06.549Z,130
2016-07-23T10:54:07.246Z,115
2016-07-23T10:55:07.261Z,110
2016-07-23T10:56:07.968Z,110
2016-07-23T10:57:06.556Z,115
2016-07-23T10:58:07.978Z,120
2016-07-23T10:59:07.274Z,120
2016-07-23T11:00:07.275Z,120
2016-07-23T11:01:07.992Z,130
2016-07-23T11:02:07.485Z,130
2016-07-23T11:03:07.995Z,135
2016-07-23T11:04:06.588Z,135
2016-07-23T11:05:07.303Z,130
2016-07-23T11:06:08.012Z,115
2016-07-23T11:07:06.606Z,110
2016-07-23T11:08:07.319Z,115
2016-07-23T11:09:06.618Z,120
2016-07-23T11:10:06.640Z,120
2016-07-23T11:11:07.334Z,125
2016-07-23T11:12:07.338Z,125
2016-07-23T11:13:07.182Z,130
2016-07-23T11:14:05.937Z,130
2016-07-23T11:15:09.067Z,130
2016-07-23T11:16:08.070Z,125
2016-07-23T11:17:08.077Z,120
2016-07-23T11:18:08.080Z,125
2016-07-23T11:19:06.666Z,130
2016-07-23T11:20:08.105Z,130
2016-07-23T11:21:07.390Z,130
2016-07-23T11:22:07.399Z,120
2016-07-23T11:23:07.406Z,125
2016-07-23T11:24:08.324Z,120
2016-07-23T11:25:08.118Z,125
2016-07-23T11:26:08.130Z,125
2016-07-23T11:27:06.718Z,120
2016-07-23T11:28:07.433Z,115
2016-07-23T11:29:07.434Z,110
2016-07-23T11:30:07.444Z,105
2016-07-23T11:31:06.745Z,100
2016-07-23T11:32:07.456Z,100
2016-07-23T11:33:08.874Z,100
2016-07-23T11:34:08.185Z,100
2016-07-23T11:35:07.966Z,105
2016-07-23T11:36:08.889Z,110
2016-07-23T11:37:07.585Z,115
2016-07-23T11:38:06.785Z,115
2016-07-23T11:39:08.202Z,120
2016-07-23T11:40:07.502Z,115
2016-07-23T11:41:08.217Z,110
2016-07-23T11:42:07.520Z,110
2016-07-23T11:43:07.514Z,110
2016-07-23T11:44:08.936Z,110
2016-07-23T11:45:08.941Z,110
2016-07-23T11:46:08.033Z,110
2016-07-23T11:47:08.245Z,105
2016-07-23T11:48:08.256Z,110
2016-07-23T11:49:06.842Z,110
2016-07-23T11:50:08.267Z,110
2016-07-23T11:51:06.855Z,110
2016-07-23T11:52:08.278Z,110
2016-07-23T11:53:06.866Z,115
2016-07-23T11:54:07.584Z,115
2016-07-23T11:55:07.589Z,110
2016-07-23T11:56:07.604Z,110
2016-07-23T11:57:08.163Z,105
2016-07-23T11:58:07.603Z,105
2016-07-23T11:59:08.324Z,105
2016-07-23T12:00:06.916Z,105
2016-07-23T12:01:09.036Z,110
2016-07-23T12:02:06.924Z,110
2016-07-23T12:03:06.927Z,115
2016-07-23T12:04:06.936Z,115
2016-07-23T12:05:08.356Z,115
2016-07-23T12:06:07.654Z,115
2016-07-23T12:07:07.657Z,115
2016-07-23T12:08:08.220Z,110
2016-07-23T12:09:06.261Z,110
2016-07-23T12:10:07.077Z,110
2016-07-23T12:11:08.392Z,115
2016-07-23T12:12:07.689Z,115
2016-07-23T12:13:07.699Z,115
2016-07-23T12:14:07.704Z,115
2016-07-23T12:15:09.122Z,110
2016-07-23T12:16:08.421Z,110
2016-07-23T12:17:07.011Z,105
2016-07-23T12:18:08.434Z,105
2016-07-23T12:19:09.288Z,105
2016-07-23T12:20:08.449Z,105
2016-07-23T12:21:10.435Z,105
2016-07-23T12:22:07.042Z,105
2016-07-23T12:23:07.755Z,105
2016-07-23T12:24:07.759Z,100
2016-07-23T12:25:09.182Z,100
2016-07-23T12:26:08.480Z,105
2016-07-23T12:27:07.792Z,105
2016-07-23T12:28:07.787Z,110
2016-07-23T12:29:07.789Z,110
2016-07-23T12:30:08.702Z,110
2016-07-23T12:31:08.506Z,110
2016-07-23T12:32:10.499Z,110
2016-07-23T12:33:09.225Z,110
2016-07-23T12:34:09.239Z,110
2016-07-23T12:35:08.534Z,115
2016-07-23T12:36:08.537Z,115
2016-07-23T12:37:08.547Z,115
2016-07-23T12:38:07.135Z,120
2016-07-23T12:39:07.854Z,120
2016-07-23T12:40:07.854Z,120
2016-07-23T12:41:08.719Z,120
2016-07-23T12:42:07.874Z,120
2016-07-23T12:43:08.372Z,120
2016-07-23T12:44:07.878Z,120
2016-07-23T12:45:07.181Z,120
2016-07-23T12:46:09.307Z,125
2016-07-23T12:47:08.607Z,125
2016-07-23T12:48:08.614Z,120
2016-07-23T12:49:07.912Z,125
2016-07-23T12:50:07.926Z,125
2016-07-23T12:51:09.337Z,125
2016-07-23T12:52:09.431Z,125
2016-07-23T12:53:07.942Z,125
2016-07-23T12:54:07.694Z,125
2016-07-23T12:55:07.249Z,125
2016-07-23T12:56:07.962Z,125
2016-07-23T12:57:08.672Z,125
2016-07-23T12:58:09.388Z,125
2016-07-23T12:59:08.036Z,125
2016-07-23T13:00:07.282Z,125
2016-07-23T13:01:08.700Z,130
2016-07-23T13:02:08.758Z,130
2016-07-23T13:03:09.827Z,130
2016-07-23T13:04:08.718Z,130
2016-07-23T13:05:08.722Z,130
2016-07-23T13:06:09.449Z,130
2016-07-23T13:07:08.905Z,130
2016-07-23T13:08:07.331Z,130
2016-07-23T13:09:08.048Z,125
2016-07-23T13:10:08.055Z,115
2016-07-23T13:11:08.759Z,115
2016-07-23T13:12:07.358Z,120
2016-07-23T13:13:08.770Z,120
2016-07-23T13:14:09.642Z,120
2016-07-23T13:15:08.075Z,125
2016-07-23T13:16:08.794Z,125
2016-07-23T13:17:08.091Z,120
2016-07-23T13:18:07.399Z,120
2016-07-23T13:19:08.105Z,115
2016-07-23T13:20:08.121Z,115
2016-07-23T13:21:08.823Z,110
2016-07-23T13:22:07.419Z,105
2016-07-23T13:23:08.846Z,105
2016-07-23T13:24:08.142Z,105
2016-07-23T13:25:08.939Z,105
2016-07-23T13:26:08.858Z,105
2016-07-23T13:27:08.474Z,100
2016-07-23T13:28:08.171Z,105
2016-07-23T13:29:07.458Z,100
2016-07-23T13:30:07.475Z,100
2016-07-23T13:31:08.887Z,100
2016-07-23T13:32:08.902Z,95
2016-07-23T13:33:09.611Z,95
2016-07-23T13:34:07.501Z,95
2016-07-23T13:35:08.918Z,90
2016-07-23T13:36:09.585Z,90
2016-07-23T13:37:06.806Z,90
2016-07-23T13:38:10.831Z,85
2016-07-23T13:39:08.237Z,85
2016-07-23T13:40:07.535Z,85
2016-07-23T13:41:07.540Z,85
2016-07-23T13:42:08.958Z,85
2016-07-23T13:43:08.262Z,85
2016-07-23T13:44:09.683Z,85
2016-07-23T13:45:07.559Z,85
2016-07-23T13:46:07.570Z,85
2016-07-23T13:47:09.140Z,85
2016-07-23T13:48:08.996Z,85
2016-07-23T13:49:09.350Z,85
2016-07-23T13:50:07.603Z,90
2016-07-23T13:51:08.308Z,90
2016-07-23T13:52:09.017Z,90
2016-07-23T13:53:09.041Z,90
2016-07-23T13:54:09.032Z,90
2016-07-23T13:55:08.331Z,90
2016-07-23T13:56:08.336Z,90
2016-07-23T13:57:09.052Z,90
2016-07-23T13:58:10.202Z,90
2016-07-23T13:59:08.366Z,90
2016-07-23T14:00:09.061Z,90
2016-07-23T14:01:08.367Z,90
2016-07-23T14:02:09.081Z,90
2016-07-23T14:03:09.847Z,90
2016-07-23T14:04:08.398Z,90
2016-07-23T14:05:06.984Z,90
2016-07-23T14:06:07.691Z,90
2016-07-23T14:07:08.403Z,90
2016-07-23T14:08:09.254Z,90
2016-07-23T14:09:10.273Z,90
2016-07-23T14:10:09.134Z,90
2016-07-23T14:11:09.221Z,90
2016-07-23T14:12:09.883Z,90
2016-07-23T14:13:08.435Z,90
2016-07-23T14:14:07.737Z,90